Time;durP1;ratioP1;P1;durP2;ratioP2;P2;SDS_P1;SDS_P2;PMS_P1;PMS_P2;Temp;Humidity;BMP_temperature;BMP_pressure;BME280_temperature;BME280_humidity;BME280_pressure;Samples;Min_cycle;Max_cycle;Signal;HPM_P1;HPM_P2
2023/06/12 00:02:13;;;;;;;7.40;4.60;;;;;;;;;;5024250;28;20257;-52
2023/06/12 00:04:44;;;;;;;4.53;4.13;;;;;;;;;;5025264;28;20243;-51
2023/06/12 00:07:11;;;;;;;6.25;5.07;;;;;;;;;;5022970;28;20310;-51
2023/06/12 00:09:38;;;;;;;9.45;4.95;;;;;;;;;;5024783;28;20236;-52
2023/06/12 00:12:05;;;;;;;6.35;4.93;;;;;;;;;;5023335;28;20672;-52
2023/06/12 00:14:31;;;;;;;8.15;4.95;;;;;;;;;;5023868;28;20302;-53
2023/06/12 00:16:58;;;;;;;4.45;4.05;;;;;;;;;;5024726;28;20802;-51
2023/06/12 00:19:25;;;;;;;6.88;4.75;;;;;;;;;;5026466;28;20327;-51
2023/06/12 00:21:53;;;;;;;8.45;4.70;;;;;;;;;;5025204;28;20362;-53
2023/06/12 00:24:20;;;;;;;5.03;4.25;;;;;;;;;;5010555;28;20227;-54
2023/06/12 00:26:46;;;;;;;4.88;4.20;;;;;;;;;;5008361;28;20244;-52
2023/06/12 00:29:15;;;;;;;4.82;4.40;;;;;;;;;;5013866;28;20603;-51
2023/06/12 00:31:41;;;;;;;7.40;4.63;;;;;;;;;;5016211;28;20248;-50
2023/06/12 00:34:08;;;;;;;4.88;4.47;;;;;;;;;;5014733;28;20225;-51
2023/06/12 00:36:35;;;;;;;5.25;4.75;;;;;;;;;;5015421;28;20244;-51
2023/06/12 00:39:03;;;;;;;5.35;4.30;;;;;;;;;;5016285;28;20228;-54
2023/06/12 00:41:29;;;;;;;5.00;4.57;;;;;;;;;;5013297;28;20240;-52
2023/06/12 00:43:56;;;;;;;5.18;4.53;;;;;;;;;;5015309;28;20290;-52
2023/06/12 00:46:23;;;;;;;6.18;4.53;;;;;;;;;;5022401;28;20236;-52
2023/06/12 00:48:49;;;;;;;5.20;4.72;;;;;;;;;;5004958;28;20743;-52
2023/06/12 00:51:17;;;;;;;8.77;4.82;;;;;;;;;;5007831;28;20315;-52
2023/06/12 00:53:43;;;;;;;8.25;4.55;;;;;;;;;;5003687;28;20249;-52
2023/06/12 00:56:13;;;;;;;4.45;4.05;;;;;;;;;;4998236;28;20234;-52
2023/06/12 00:58:40;;;;;;;4.55;4.15;;;;;;;;;;5004969;28;20236;-51
2023/06/12 01:01:08;;;;;;;4.97;4.13;;;;;;;;;;5004407;28;20244;-52
2023/06/12 01:03:35;;;;;;;4.90;4.50;;;;;;;;;;5004535;28;20300;-51
2023/06/12 01:06:04;;;;;;;5.60;4.03;;;;;;;;;;5002722;28;20236;-52
2023/06/12 01:08:35;;;;;;;5.70;4.18;;;;;;;;;;5005287;28;20225;-51
2023/06/12 01:11:04;;;;;;;5.15;4.35;;;;;;;;;;5009072;28;20787;-55
2023/06/12 01:13:33;;;;;;;5.45;4.38;;;;;;;;;;5009104;28;20307;-57
2023/06/12 01:15:59;;;;;;;4.20;3.90;;;;;;;;;;5011523;28;20264;-52
2023/06/12 01:18:27;;;;;;;4.15;3.75;;;;;;;;;;5019663;28;20327;-52
2023/06/12 01:20:55;;;;;;;4.82;4.43;;;;;;;;;;5022017;28;20876;-52
2023/06/12 01:23:32;;;;;;;4.47;4.15;;;;;;;;;;5017445;28;20248;-52
2023/06/12 01:26:11;;;;;;;4.47;3.58;;;;;;;;;;5019981;28;20229;-54
2023/06/12 01:28:53;;;;;;;3.97;3.67;;;;;;;;;;5015487;28;20314;-52
2023/06/12 01:31:22;;;;;;;4.28;3.88;;;;;;;;;;5019204;28;20235;-54
2023/06/12 01:33:52;;;;;;;5.75;4.85;;;;;;;;;;5024263;28;20240;-54
2023/06/12 01:36:21;;;;;;;4.53;4.05;;;;;;;;;;5013167;28;20225;-52
2023/06/12 01:38:50;;;;;;;4.72;4.30;;;;;;;;;;5019077;28;20263;-51
2023/06/12 01:41:17;;;;;;;7.43;4.53;;;;;;;;;;5021853;28;20314;-52
2023/06/12 01:43:43;;;;;;;5.60;3.75;;;;;;;;;;5021035;28;20294;-51
2023/06/12 01:46:10;;;;;;;6.22;4.25;;;;;;;;;;5021724;28;20286;-51
2023/06/12 01:48:39;;;;;;;4.53;3.97;;;;;;;;;;5023206;28;20655;-51
2023/06/12 01:51:07;;;;;;;4.57;3.20;;;;;;;;;;5021512;28;20239;-53
2023/06/12 01:53:33;;;;;;;4.10;3.70;;;;;;;;;;5018893;28;20224;-53
2023/06/12 01:56:00;;;;;;;3.85;3.47;;;;;;;;;;5018756;28;20717;-54
2023/06/12 01:58:27;;;;;;;6.25;3.67;;;;;;;;;;5018328;28;20335;-52
2023/06/12 02:00:55;;;;;;;7.32;4.18;;;;;;;;;;5012682;28;20324;-51
2023/06/12 02:03:22;;;;;;;3.70;3.40;;;;;;;;;;5017337;28;20334;-52
2023/06/12 02:05:49;;;;;;;4.15;3.40;;;;;;;;;;5015784;28;20224;-53
2023/06/12 02:08:17;;;;;;;3.45;3.15;;;;;;;;;;5019236;28;20306;-51
2023/06/12 02:10:44;;;;;;;3.85;3.38;;;;;;;;;;5017168;28;20228;-51
2023/06/12 02:13:10;;;;;;;5.55;3.50;;;;;;;;;;5018134;28;20248;-52
2023/06/12 02:15:37;;;;;;;8.35;3.67;;;;;;;;;;5015950;28;20728;-53
2023/06/12 02:18:03;;;;;;;3.90;3.60;;;;;;;;;;5020282;28;20239;-51
2023/06/12 02:20:30;;;;;;;4.57;3.60;;;;;;;;;;5017596;28;20243;-52
2023/06/12 02:22:57;;;;;;;8.13;3.67;;;;;;;;;;5016867;28;20314;-52
2023/06/12 02:25:25;;;;;;;4.45;3.72;;;;;;;;;;5017901;28;20232;-52
2023/06/12 02:27:51;;;;;;;5.47;3.63;;;;;;;;;;5023527;28;20294;-52
2023/06/12 02:30:18;;;;;;;6.18;3.80;;;;;;;;;;5016699;28;20231;-52
2023/06/12 02:32:49;;;;;;;3.88;3.33;;;;;;;;;;5005493;28;20348;-53
2023/06/12 02:35:17;;;;;;;3.70;3.35;;;;;;;;;;5021168;28;20228;-52
2023/06/12 02:37:44;;;;;;;8.25;3.13;;;;;;;;;;5023654;28;20646;-53
2023/06/12 02:40:11;;;;;;;4.85;3.78;;;;;;;;;;5022271;28;20264;-52
2023/06/12 02:42:39;;;;;;;4.75;3.40;;;;;;;;;;5026250;28;20239;-51
2023/06/12 02:45:06;;;;;;;7.60;3.55;;;;;;;;;;5025889;28;20228;-51
2023/06/12 02:47:33;;;;;;;5.15;3.75;;;;;;;;;;5024959;28;22125;-52
2023/06/12 02:50:00;;;;;;;4.68;4.15;;;;;;;;;;5026809;28;20229;-52
2023/06/12 02:52:26;;;;;;;4.95;4.05;;;;;;;;;;5023612;28;20323;-53
2023/06/12 02:54:53;;;;;;;5.72;3.72;;;;;;;;;;5021658;28;20267;-51
2023/06/12 02:57:19;;;;;;;4.03;3.65;;;;;;;;;;5026133;28;20862;-51
2023/06/12 02:59:47;;;;;;;8.35;3.50;;;;;;;;;;5025262;28;20229;-53
2023/06/12 03:02:14;;;;;;;5.30;3.65;;;;;;;;;;5023668;28;20315;-50
2023/06/12 03:04:41;;;;;;;3.90;3.47;;;;;;;;;;5026253;28;20237;-51
2023/06/12 03:07:08;;;;;;;6.72;4.05;;;;;;;;;;5026208;28;20232;-52
2023/06/12 03:09:35;;;;;;;4.45;4.05;;;;;;;;;;5022901;28;20886;-53
2023/06/12 03:12:02;;;;;;;3.97;3.58;;;;;;;;;;5023924;28;20266;-52
2023/06/12 03:14:28;;;;;;;4.93;4.28;;;;;;;;;;5025919;28;20781;-53
2023/06/12 03:16:56;;;;;;;4.68;4.22;;;;;;;;;;5021823;28;20874;-52
2023/06/12 03:19:23;;;;;;;5.30;4.00;;;;;;;;;;5025605;28;20290;-52
2023/06/12 03:21:49;;;;;;;5.40;4.15;;;;;;;;;;5024067;28;20249;-51
2023/06/12 03:24:16;;;;;;;4.95;4.25;;;;;;;;;;5031547;28;20597;-52
2023/06/12 03:26:43;;;;;;;4.40;4.00;;;;;;;;;;5019112;28;20303;-52
2023/06/12 03:29:10;;;;;;;4.88;4.20;;;;;;;;;;5016711;28;20323;-51
2023/06/12 03:31:37;;;;;;;5.45;4.65;;;;;;;;;;5021438;28;20329;-51
2023/06/12 03:34:05;;;;;;;8.18;4.22;;;;;;;;;;5005758;28;20240;-52
2023/06/12 03:36:33;;;;;;;7.07;5.10;;;;;;;;;;5002051;28;20233;-51
2023/06/12 03:39:00;;;;;;;8.43;4.93;;;;;;;;;;5007301;28;20633;-51
2023/06/12 03:41:31;;;;;;;4.90;4.40;;;;;;;;;;5005994;28;20719;-52
2023/06/12 03:43:58;;;;;;;6.93;4.70;;;;;;;;;;5007240;28;20232;-50
2023/06/12 03:46:25;;;;;;;4.80;4.40;;;;;;;;;;5007147;28;20236;-52
2023/06/12 03:48:51;;;;;;;4.63;4.22;;;;;;;;;;5014986;28;20317;-51
2023/06/12 03:51:19;;;;;;;4.78;4.38;;;;;;;;;;5032449;28;20228;-50
2023/06/12 03:53:46;;;;;;;5.28;4.43;;;;;;;;;;5029365;28;20298;-51
2023/06/12 03:56:13;;;;;;;5.03;4.15;;;;;;;;;;5033707;28;20868;-54
2023/06/12 03:58:39;;;;;;;5.32;4.90;;;;;;;;;;5024540;28;20627;-51
2023/06/12 04:01:06;;;;;;;6.20;4.85;;;;;;;;;;5024762;28;20328;-51
2023/06/12 04:03:34;;;;;;;5.07;4.63;;;;;;;;;;5024606;28;20243;-52
2023/06/12 04:06:01;;;;;;;5.50;4.05;;;;;;;;;;5025606;28;20310;-51
2023/06/12 04:08:29;;;;;;;6.85;4.47;;;;;;;;;;5023450;28;20286;-51
2023/06/12 04:10:55;;;;;;;4.85;4.43;;;;;;;;;;5024254;28;20589;-51
2023/06/12 04:13:22;;;;;;;4.25;3.85;;;;;;;;;;5019961;28;20260;-52
2023/06/12 04:15:49;;;;;;;4.88;4.47;;;;;;;;;;5024919;28;20314;-53
2023/06/12 04:18:15;;;;;;;4.50;4.07;;;;;;;;;;5025424;28;20252;-52
2023/06/12 04:20:42;;;;;;;7.65;4.38;;;;;;;;;;5021200;28;20235;-52
2023/06/12 04:23:11;;;;;;;4.47;4.05;;;;;;;;;;5023178;28;20264;-52
2023/06/12 04:25:42;;;;;;;4.40;4.00;;;;;;;;;;5020857;28;20233;-51
2023/06/12 04:28:13;;;;;;;3.85;3.28;;;;;;;;;;5024669;28;20229;-52
2023/06/12 04:30:41;;;;;;;5.32;3.85;;;;;;;;;;5022080;28;20729;-52
2023/06/12 04:33:09;;;;;;;5.13;4.03;;;;;;;;;;5022226;28;20255;-53
2023/06/12 04:35:36;;;;;;;5.53;3.90;;;;;;;;;;5024991;28;20232;-52
2023/06/12 04:38:04;;;;;;;8.35;4.35;;;;;;;;;;5025089;28;20233;-51
2023/06/12 04:40:36;;;;;;;4.03;3.70;;;;;;;;;;5021632;28;20787;-52
2023/06/12 04:43:05;;;;;;;4.40;4.00;;;;;;;;;;5005774;28;20267;-53
2023/06/12 04:45:32;;;;;;;3.70;3.38;;;;;;;;;;5009547;28;20235;-52
2023/06/12 04:47:59;;;;;;;6.45;3.83;;;;;;;;;;5022425;28;20232;-53
2023/06/12 04:50:26;;;;;;;4.75;4.35;;;;;;;;;;5024031;28;20240;-51
2023/06/12 04:52:53;;;;;;;6.05;3.80;;;;;;;;;;5021884;28;21657;-52
2023/06/12 04:55:22;;;;;;;11.57;4.25;;;;;;;;;;5021260;28;20291;-52
2023/06/12 04:57:52;;;;;;;4.75;4.13;;;;;;;;;;5021684;28;20655;-53
2023/06/12 05:00:20;;;;;;;4.22;3.83;;;;;;;;;;5021534;28;20233;-52
2023/06/12 05:02:47;;;;;;;3.92;3.55;;;;;;;;;;5014691;28;20235;-52
2023/06/12 05:05:13;;;;;;;5.28;4.05;;;;;;;;;;5023388;28;20236;-52
2023/06/12 05:07:41;;;;;;;9.30;4.22;;;;;;;;;;5026444;28;20689;-53
2023/06/12 05:10:08;;;;;;;4.40;3.78;;;;;;;;;;5022054;28;20224;-53
2023/06/12 05:12:35;;;;;;;4.15;3.80;;;;;;;;;;5018218;28;20229;-51
2023/06/12 05:15:02;;;;;;;5.30;4.50;;;;;;;;;;5025109;28;20240;-52
2023/06/12 05:17:30;;;;;;;5.80;4.53;;;;;;;;;;5022820;28;20683;-51
2023/06/12 05:19:56;;;;;;;5.72;3.97;;;;;;;;;;5022971;28;20233;-53
2023/06/12 05:22:23;;;;;;;8.07;4.13;;;;;;;;;;5021874;28;20287;-52
2023/06/12 05:24:50;;;;;;;4.30;3.90;;;;;;;;;;5018885;28;20645;-52
2023/06/12 05:27:16;;;;;;;4.68;4.13;;;;;;;;;;5023090;28;20316;-51
2023/06/12 05:29:43;;;;;;;13.43;4.68;;;;;;;;;;5022536;28;20747;-52
2023/06/12 05:32:10;;;;;;;5.03;3.88;;;;;;;;;;5019361;28;20781;-51
2023/06/12 05:34:38;;;;;;;5.13;3.78;;;;;;;;;;5020746;28;20236;-51
2023/06/12 05:37:05;;;;;;;3.97;3.67;;;;;;;;;;5022497;28;20233;-51
2023/06/12 05:39:31;;;;;;;5.50;3.70;;;;;;;;;;5020609;28;20532;-51
2023/06/12 05:41:58;;;;;;;4.68;3.42;;;;;;;;;;5020914;28;20290;-52
2023/06/12 05:44:24;;;;;;;3.88;3.10;;;;;;;;;;5021671;28;20320;-51
2023/06/12 05:46:52;;;;;;;6.30;3.70;;;;;;;;;;5020639;28;20248;-51
2023/06/12 05:49:18;;;;;;;6.82;3.35;;;;;;;;;;5017522;28;20346;-52
2023/06/12 05:51:46;;;;;;;8.90;4.00;;;;;;;;;;5020862;28;20323;-52
2023/06/12 05:54:12;;;;;;;7.13;4.15;;;;;;;;;;5022498;28;20824;-52
2023/06/12 05:56:39;;;;;;;6.82;4.75;;;;;;;;;;5023301;28;20601;-50
2023/06/12 05:59:06;;;;;;;4.68;3.58;;;;;;;;;;5024236;28;20252;-53
2023/06/12 06:01:33;;;;;;;3.72;3.25;;;;;;;;;;5024796;28;20256;-52
2023/06/12 06:04:00;;;;;;;10.75;4.00;;;;;;;;;;5019385;28;20782;-52
2023/06/12 06:06:27;;;;;;;6.22;3.70;;;;;;;;;;5014244;28;20237;-52
2023/06/12 06:08:56;;;;;;;4.95;4.40;;;;;;;;;;5004412;28;20237;-51
2023/06/12 06:11:22;;;;;;;4.07;3.67;;;;;;;;;;5010868;28;20233;-52
2023/06/12 06:13:49;;;;;;;8.52;3.67;;;;;;;;;;5023474;28;20267;-51
2023/06/12 06:16:16;;;;;;;4.22;3.80;;;;;;;;;;5035576;28;20228;-52
2023/06/12 06:18:46;;;;;;;6.82;3.65;;;;;;;;;;5029397;28;20243;-50
2023/06/12 06:21:13;;;;;;;6.80;4.55;;;;;;;;;;5020476;28;20237;-51
2023/06/12 06:23:40;;;;;;;6.43;3.92;;;;;;;;;;5008767;28;20255;-52
2023/06/12 06:26:08;;;;;;;4.93;3.67;;;;;;;;;;5025580;28;20236;-53
2023/06/12 06:28:35;;;;;;;6.85;3.72;;;;;;;;;;5026354;28;20727;-52
2023/06/12 06:31:03;;;;;;;4.22;3.50;;;;;;;;;;5028265;28;20228;-52
2023/06/12 06:33:30;;;;;;;4.10;3.75;;;;;;;;;;5017646;28;20610;-52
2023/06/12 06:35:57;;;;;;;3.85;3.53;;;;;;;;;;5007412;28;20233;-52
2023/06/12 06:38:24;;;;;;;3.88;3.35;;;;;;;;;;5016730;28;21632;-51
2023/06/12 06:40:51;;;;;;;6.15;3.30;;;;;;;;;;5023959;28;20228;-52
2023/06/12 06:43:19;;;;;;;6.03;3.15;;;;;;;;;;5021252;28;20232;-52
2023/06/12 06:45:46;;;;;;;6.63;3.80;;;;;;;;;;5012133;28;20661;-51
2023/06/12 06:48:13;;;;;;;5.57;3.55;;;;;;;;;;5005042;28;20237;-51
2023/06/12 06:50:40;;;;;;;5.45;4.05;;;;;;;;;;5024033;28;20232;-53
2023/06/12 06:53:07;;;;;;;5.97;3.75;;;;;;;;;;5022318;28;20236;-52
2023/06/12 06:55:34;;;;;;;7.10;4.05;;;;;;;;;;5019429;28;20247;-54
2023/06/12 06:58:00;;;;;;;5.18;4.68;;;;;;;;;;5025934;28;20228;-51
2023/06/12 07:00:29;;;;;;;4.15;3.70;;;;;;;;;;5027025;28;20229;-52
2023/06/12 07:02:56;;;;;;;4.18;3.58;;;;;;;;;;5027180;28;20263;-54
2023/06/12 07:05:22;;;;;;;5.45;4.85;;;;;;;;;;5028165;28;20243;-51
2023/06/12 07:07:49;;;;;;;4.97;3.50;;;;;;;;;;5027103;28;20339;-51
2023/06/12 07:10:16;;;;;;;5.25;3.80;;;;;;;;;;5024476;28;20707;-51
2023/06/12 07:12:43;;;;;;;4.68;4.07;;;;;;;;;;5012442;28;20233;-53
2023/06/12 07:15:09;;;;;;;10.63;3.97;;;;;;;;;;5026533;28;20236;-52
2023/06/12 07:17:37;;;;;;;5.07;4.05;;;;;;;;;;5023321;28;20240;-52
2023/06/12 07:20:05;;;;;;;9.43;4.03;;;;;;;;;;5026920;28;20232;-54
2023/06/12 07:22:33;;;;;;;5.57;3.95;;;;;;;;;;5024672;28;20250;-51
2023/06/12 07:25:00;;;;;;;3.67;3.33;;;;;;;;;;5019909;28;20884;-51
2023/06/12 07:27:26;;;;;;;5.97;3.78;;;;;;;;;;4999218;28;20647;-52
2023/06/12 07:29:55;;;;;;;4.45;3.50;;;;;;;;;;5002886;28;20315;-53
2023/06/12 07:32:21;;;;;;;4.43;3.83;;;;;;;;;;5002791;28;20229;-52
2023/06/12 07:34:50;;;;;;;4.57;4.05;;;;;;;;;;5004550;28;20626;-52
2023/06/12 07:37:16;;;;;;;7.25;3.63;;;;;;;;;;5006946;28;20237;-52
2023/06/12 07:39:43;;;;;;;4.47;3.53;;;;;;;;;;5002362;28;20234;-51
2023/06/12 07:42:09;;;;;;;4.78;3.95;;;;;;;;;;5003156;28;20233;-52
2023/06/12 07:44:37;;;;;;;3.72;3.30;;;;;;;;;;5006748;28;20233;-51
2023/06/12 07:47:04;;;;;;;7.03;4.32;;;;;;;;;;5008197;28;20323;-53
2023/06/12 07:49:30;;;;;;;5.47;3.20;;;;;;;;;;5026570;28;20314;-53
2023/06/12 07:51:58;;;;;;;4.45;4.05;;;;;;;;;;5002687;28;20242;-54
2023/06/12 07:54:25;;;;;;;5.63;4.13;;;;;;;;;;5005109;28;20339;-52
2023/06/12 07:56:52;;;;;;;6.22;4.30;;;;;;;;;;5007359;28;20233;-52
2023/06/12 07:59:18;;;;;;;4.85;3.85;;;;;;;;;;5040258;28;20231;-51
2023/06/12 08:01:46;;;;;;;3.55;3.25;;;;;;;;;;5013511;28;21013;-52
2023/06/12 08:04:13;;;;;;;4.57;3.83;;;;;;;;;;5013696;28;20237;-52
2023/06/12 08:06:40;;;;;;;4.75;4.18;;;;;;;;;;5026829;28;20251;-52
2023/06/12 08:09:09;;;;;;;3.72;3.33;;;;;;;;;;5007659;28;20317;-52
2023/06/12 08:11:36;;;;;;;3.85;3.45;;;;;;;;;;5007722;28;20252;-54
2023/06/12 08:14:03;;;;;;;4.05;3.65;;;;;;;;;;5028067;28;20248;-51
2023/06/12 08:16:31;;;;;;;7.38;4.05;;;;;;;;;;5025101;28;20241;-51
2023/06/12 08:18:58;;;;;;;6.57;3.88;;;;;;;;;;5008939;28;20229;-52
2023/06/12 08:21:25;;;;;;;6.53;3.72;;;;;;;;;;5010935;28;20241;-51
2023/06/12 08:23:51;;;;;;;3.55;3.10;;;;;;;;;;5026481;28;20690;-53
2023/06/12 08:26:19;;;;;;;4.78;3.40;;;;;;;;;;5035793;28;20719;-52
2023/06/12 08:28:49;;;;;;;5.53;3.38;;;;;;;;;;5024637;28;20330;-51
2023/06/12 08:31:16;;;;;;;5.72;3.60;;;;;;;;;;5023747;28;20236;-51
2023/06/12 08:33:42;;;;;;;5.43;3.13;;;;;;;;;;5025050;28;20241;-51
2023/06/12 08:36:10;;;;;;;4.95;3.85;;;;;;;;;;5020159;28;20229;-52
2023/06/12 08:38:37;;;;;;;4.53;3.72;;;;;;;;;;5044026;28;20335;-51
2023/06/12 08:41:04;;;;;;;5.70;3.70;;;;;;;;;;5018311;28;20240;-52
2023/06/12 08:43:33;;;;;;;3.92;3.10;;;;;;;;;;5033181;28;20339;-54
2023/06/12 08:46:02;;;;;;;3.53;3.22;;;;;;;;;;5028390;28;20260;-53
2023/06/12 08:48:29;;;;;;;5.40;3.45;;;;;;;;;;5019917;28;20235;-52
2023/06/12 08:50:56;;;;;;;4.32;3.92;;;;;;;;;;5023870;28;20698;-50
2023/06/12 08:53:23;;;;;;;7.75;3.67;;;;;;;;;;5014338;28;20779;-51
2023/06/12 08:55:51;;;;;;;5.15;3.45;;;;;;;;;;5011301;28;20312;-51
2023/06/12 08:58:17;;;;;;;3.78;3.47;;;;;;;;;;5009237;28;20229;-51
2023/06/12 09:00:45;;;;;;;4.07;3.28;;;;;;;;;;5009953;28;20242;-51
2023/06/12 09:03:12;;;;;;;4.28;3.83;;;;;;;;;;5005356;28;20272;-51
2023/06/12 09:05:39;;;;;;;4.93;4.15;;;;;;;;;;5007179;28;20268;-52
2023/06/12 09:08:06;;;;;;;3.92;3.40;;;;;;;;;;5008987;28;20703;-52
2023/06/12 09:10:34;;;;;;;5.97;3.47;;;;;;;;;;5017428;28;20644;-52
2023/06/12 09:13:01;;;;;;;3.38;3.08;;;;;;;;;;4994676;28;20233;-52
2023/06/12 09:15:28;;;;;;;4.97;3.72;;;;;;;;;;5004935;28;20611;-52
2023/06/12 09:17:56;;;;;;;10.10;3.40;;;;;;;;;;5025757;28;20571;-52
2023/06/12 09:20:23;;;;;;;3.47;3.17;;;;;;;;;;5027372;28;20319;-51
2023/06/12 09:22:51;;;;;;;4.20;3.80;;;;;;;;;;5024376;28;20236;-51
2023/06/12 09:25:17;;;;;;;5.15;3.75;;;;;;;;;;5024492;28;20892;-52
2023/06/12 09:27:45;;;;;;;5.65;3.42;;;;;;;;;;5025836;28;20738;-52
2023/06/12 09:30:12;;;;;;;4.47;4.07;;;;;;;;;;5025480;28;20315;-50
2023/06/12 09:32:40;;;;;;;6.18;3.88;;;;;;;;;;5018493;28;20283;-52
2023/06/12 09:35:10;;;;;;;4.70;3.85;;;;;;;;;;5040357;28;20238;-51
2023/06/12 09:37:37;;;;;;;4.55;4.15;;;;;;;;;;5030593;28;20331;-51
2023/06/12 09:40:11;;;;;;;6.30;4.30;;;;;;;;;;5038607;28;20232;-52
2023/06/12 09:42:37;;;;;;;12.10;4.10;;;;;;;;;;5012875;28;20233;-51
2023/06/12 09:45:14;;;;;;;4.00;3.60;;;;;;;;;;5013384;28;20229;-53
2023/06/12 09:47:41;;;;;;;6.28;4.22;;;;;;;;;;5028482;28;20225;-53
2023/06/12 09:50:11;;;;;;;6.97;3.42;;;;;;;;;;5032360;28;20233;-53
2023/06/12 09:52:39;;;;;;;9.30;4.20;;;;;;;;;;5033018;28;20232;-52
2023/06/12 09:55:07;;;;;;;5.72;4.00;;;;;;;;;;5025284;28;20311;-52
2023/06/12 09:57:36;;;;;;;5.88;3.92;;;;;;;;;;5024533;28;20339;-51
2023/06/12 10:00:05;;;;;;;5.72;3.50;;;;;;;;;;5022365;28;20307;-51
2023/06/12 10:02:32;;;;;;;5.40;3.50;;;;;;;;;;5019376;28;20576;-53
2023/06/12 10:05:03;;;;;;;5.40;4.00;;;;;;;;;;5025478;28;20247;-53
2023/06/12 10:07:34;;;;;;;5.38;4.00;;;;;;;;;;5024604;28;20244;-54
2023/06/12 10:10:02;;;;;;;3.90;3.50;;;;;;;;;;5023456;28;20315;-51
2023/06/12 10:12:29;;;;;;;6.05;4.00;;;;;;;;;;5021749;28;20323;-51
2023/06/12 14:18:22;;;;;;;3.70;3.40;;;;;;;;;;4998633;28;20567;-52
2023/06/12 14:20:49;;;;;;;4.13;3.50;;;;;;;;;;4991514;28;20661;-52
2023/06/12 14:23:16;;;;;;;4.28;3.92;;;;;;;;;;5002193;28;20295;-53
2023/06/12 14:25:42;;;;;;;6.22;3.63;;;;;;;;;;5001678;28;20229;-53
2023/06/12 14:28:09;;;;;;;9.80;3.78;;;;;;;;;;5004872;28;20240;-52
2023/06/12 14:30:36;;;;;;;6.65;3.67;;;;;;;;;;5004582;28;20928;-52
2023/06/12 14:33:02;;;;;;;4.80;4.40;;;;;;;;;;5004990;28;20745;-51
2023/06/12 14:35:30;;;;;;;4.53;3.75;;;;;;;;;;5004016;28;20324;-52
2023/06/12 14:37:57;;;;;;;4.53;4.13;;;;;;;;;;5007666;28;20236;-53
2023/06/12 14:40:23;;;;;;;5.43;3.80;;;;;;;;;;5008248;28;20229;-52
2023/06/12 14:42:50;;;;;;;3.97;3.58;;;;;;;;;;5007820;28;20240;-52
2023/06/12 14:45:18;;;;;;;4.57;4.00;;;;;;;;;;5006095;28;20243;-54
2023/06/12 14:47:44;;;;;;;5.20;3.83;;;;;;;;;;5007016;28;20787;-52
2023/06/12 14:50:11;;;;;;;8.50;4.38;;;;;;;;;;5006843;28;20231;-52
2023/06/12 14:52:39;;;;;;;6.03;4.53;;;;;;;;;;5008865;28;20233;-53
2023/06/12 14:55:06;;;;;;;7.80;3.83;;;;;;;;;;5006525;28;20923;-52
2023/06/12 14:57:32;;;;;;;3.95;3.65;;;;;;;;;;5007549;28;20351;-52
2023/06/12 14:59:59;;;;;;;5.35;4.03;;;;;;;;;;5007288;28;20280;-52
2023/06/12 15:02:25;;;;;;;9.07;4.40;;;;;;;;;;5005990;28;20233;-52
2023/06/12 15:04:52;;;;;;;6.25;4.00;;;;;;;;;;5008092;28;20232;-52
2023/06/12 15:07:19;;;;;;;8.52;3.83;;;;;;;;;;5007478;28;20237;-53
2023/06/12 15:09:47;;;;;;;6.03;3.97;;;;;;;;;;5007173;28;20766;-53
2023/06/12 15:12:13;;;;;;;5.30;3.40;;;;;;;;;;5006264;28;20260;-53
2023/06/12 15:14:40;;;;;;;6.38;3.65;;;;;;;;;;5006625;28;20229;-53
2023/06/12 15:17:07;;;;;;;6.45;4.43;;;;;;;;;;5008519;28;20666;-53
2023/06/12 15:19:34;;;;;;;5.00;4.13;;;;;;;;;;5006892;28;20584;-54
2023/06/12 15:22:02;;;;;;;5.95;4.03;;;;;;;;;;5006734;28;20229;-54
2023/06/12 15:24:28;;;;;;;4.80;4.32;;;;;;;;;;5007473;28;20747;-53
2023/06/12 15:26:58;;;;;;;4.13;3.78;;;;;;;;;;5007356;28;20240;-53
2023/06/12 15:29:25;;;;;;;6.47;3.88;;;;;;;;;;5002883;28;20239;-53
2023/06/12 15:31:52;;;;;;;4.70;3.47;;;;;;;;;;4999097;28;20234;-52
2023/06/12 15:34:18;;;;;;;8.73;4.75;;;;;;;;;;5003501;28;20242;-53
2023/06/12 15:36:45;;;;;;;4.90;3.50;;;;;;;;;;5004308;28;20788;-53
2023/06/12 15:39:12;;;;;;;5.43;4.30;;;;;;;;;;5000693;28;20233;-52
2023/06/12 15:41:39;;;;;;;4.47;4.07;;;;;;;;;;5006347;28;20750;-53
2023/06/12 15:44:07;;;;;;;5.95;4.07;;;;;;;;;;4999336;28;20810;-53
2023/06/12 15:46:34;;;;;;;4.88;3.92;;;;;;;;;;5004142;28;20629;-53
2023/06/12 15:49:00;;;;;;;6.68;4.38;;;;;;;;;;5005048;28;20341;-52
2023/06/12 15:51:27;;;;;;;4.97;3.67;;;;;;;;;;5004956;28;20403;-53
2023/06/12 15:53:58;;;;;;;4.47;3.72;;;;;;;;;;4994773;28;20746;-54
2023/06/12 15:56:26;;;;;;;4.22;3.83;;;;;;;;;;4999086;28;20294;-52
2023/06/12 15:58:53;;;;;;;3.80;3.30;;;;;;;;;;5003282;28;20229;-53
2023/06/12 16:01:21;;;;;;;4.38;3.72;;;;;;;;;;5003858;28;20245;-54
2023/06/12 16:03:48;;;;;;;4.88;4.07;;;;;;;;;;5004081;28;20313;-53
2023/06/12 16:06:15;;;;;;;4.50;4.10;;;;;;;;;;5003540;28;20251;-53
2023/06/12 16:08:41;;;;;;;5.22;4.13;;;;;;;;;;5003654;28;20259;-53
2023/06/12 16:11:08;;;;;;;4.78;4.38;;;;;;;;;;5003547;28;20267;-53
2023/06/12 16:13:36;;;;;;;4.78;3.85;;;;;;;;;;5003558;28;20719;-53
2023/06/12 16:16:02;;;;;;;5.50;4.32;;;;;;;;;;5003192;28;20325;-54
2023/06/12 16:18:30;;;;;;;4.38;3.85;;;;;;;;;;5003252;28;20291;-52
2023/06/12 16:20:57;;;;;;;4.32;3.92;;;;;;;;;;5002299;28;20232;-51
2023/06/12 16:23:24;;;;;;;4.60;4.13;;;;;;;;;;5000841;28;20236;-53
2023/06/12 16:25:50;;;;;;;4.55;4.15;;;;;;;;;;4994072;28;20236;-54
2023/06/12 16:28:17;;;;;;;5.30;3.80;;;;;;;;;;5001810;28;20658;-54
2023/06/12 16:30:44;;;;;;;6.90;4.07;;;;;;;;;;5004045;28;20225;-53
2023/06/12 16:33:11;;;;;;;4.95;3.60;;;;;;;;;;5000196;28;20259;-54
2023/06/12 16:35:39;;;;;;;8.88;4.03;;;;;;;;;;5002297;28;20236;-53
2023/06/12 16:38:06;;;;;;;5.18;4.20;;;;;;;;;;4998374;28;20233;-54
2023/06/12 16:40:32;;;;;;;4.63;4.22;;;;;;;;;;5002579;28;20364;-53
2023/06/12 16:42:59;;;;;;;8.63;4.35;;;;;;;;;;5003708;28;21060;-52
2023/06/12 16:45:26;;;;;;;4.53;3.92;;;;;;;;;;5001734;28;20241;-54
2023/06/12 16:47:53;;;;;;;6.03;3.97;;;;;;;;;;5004280;28;20241;-53
2023/06/12 16:50:20;;;;;;;4.10;3.70;;;;;;;;;;5001813;28;20237;-52
2023/06/12 16:52:48;;;;;;;5.85;4.35;;;;;;;;;;5002623;28;20237;-54
2023/06/12 16:55:15;;;;;;;7.30;4.00;;;;;;;;;;4993637;28;20777;-53
2023/06/12 16:57:42;;;;;;;6.65;3.63;;;;;;;;;;4999138;28;20233;-53
2023/06/12 17:00:09;;;;;;;5.30;4.53;;;;;;;;;;5001470;28;20237;-52
2023/06/12 17:02:36;;;;;;;6.75;4.50;;;;;;;;;;5002204;28;20233;-54
2023/06/12 17:05:03;;;;;;;5.35;4.85;;;;;;;;;;5002102;28;20245;-54
2023/06/12 17:07:29;;;;;;;5.57;4.35;;;;;;;;;;5000726;28;20233;-53
2023/06/12 17:10:00;;;;;;;5.85;4.43;;;;;;;;;;5002107;28;20241;-54
2023/06/12 17:12:26;;;;;;;4.88;4.40;;;;;;;;;;5002861;28;20328;-53
2023/06/12 17:14:53;;;;;;;10.75;5.15;;;;;;;;;;5002364;28;20235;-53
2023/06/12 17:17:20;;;;;;;4.28;3.80;;;;;;;;;;4999780;28;20245;-53
2023/06/12 17:19:47;;;;;;;5.60;3.90;;;;;;;;;;4997743;28;20248;-53
2023/06/12 17:22:13;;;;;;;4.05;3.63;;;;;;;;;;5002994;28;20237;-52
2023/06/12 17:24:40;;;;;;;4.15;3.50;;;;;;;;;;5001764;28;20267;-53
2023/06/12 17:27:08;;;;;;;4.93;3.95;;;;;;;;;;5002441;28;20237;-52
2023/06/12 17:29:35;;;;;;;4.25;3.88;;;;;;;;;;5000729;28;20534;-54
2023/06/12 17:32:03;;;;;;;5.13;3.72;;;;;;;;;;5001108;28;20233;-52
2023/06/12 17:34:29;;;;;;;4.45;4.05;;;;;;;;;;4998510;28;20337;-52
2023/06/12 17:36:56;;;;;;;4.00;3.70;;;;;;;;;;4999811;28;20514;-53
2023/06/12 17:39:23;;;;;;;5.85;3.75;;;;;;;;;;5000611;28;20237;-53
2023/06/12 17:41:50;;;;;;;4.95;4.45;;;;;;;;;;4997810;28;20225;-53
2023/06/12 17:44:18;;;;;;;4.22;3.92;;;;;;;;;;5001759;28;20241;-52
2023/06/12 17:46:44;;;;;;;4.68;4.00;;;;;;;;;;4999971;28;20316;-53
2023/06/12 17:49:11;;;;;;;5.28;4.13;;;;;;;;;;4996937;28;20268;-54
2023/06/12 17:51:38;;;;;;;4.35;3.83;;;;;;;;;;5000585;28;20248;-53
2023/06/12 17:54:04;;;;;;;5.18;4.20;;;;;;;;;;4995890;28;20233;-53
2023/06/12 17:56:31;;;;;;;4.13;3.72;;;;;;;;;;5001808;28;20269;-53
2023/06/12 17:58:58;;;;;;;5.57;3.85;;;;;;;;;;4999697;28;20777;-53
2023/06/12 18:01:26;;;;;;;5.35;3.50;;;;;;;;;;5001096;28;20264;-54
2023/06/12 18:03:53;;;;;;;4.03;3.72;;;;;;;;;;5000304;28;20232;-52
2023/06/12 18:06:20;;;;;;;4.68;4.28;;;;;;;;;;4998297;28;20229;-53
2023/06/12 18:08:46;;;;;;;4.38;4.03;;;;;;;;;;4997964;28;20669;-52
2023/06/12 18:11:13;;;;;;;4.35;4.05;;;;;;;;;;4999556;28;20233;-54
2023/06/12 18:13:40;;;;;;;5.28;4.30;;;;;;;;;;4999488;28;20228;-53
2023/06/12 18:16:07;;;;;;;5.78;4.25;;;;;;;;;;4990541;28;20236;-53
2023/06/12 18:18:36;;;;;;;4.72;4.25;;;;;;;;;;4999465;28;20256;-53
2023/06/12 18:21:02;;;;;;;4.70;4.20;;;;;;;;;;5000834;28;20241;-53
2023/06/12 18:23:29;;;;;;;4.55;4.15;;;;;;;;;;4998750;28;20659;-53
2023/06/12 18:25:56;;;;;;;9.10;4.85;;;;;;;;;;4999504;28;20260;-54
2023/06/12 18:28:23;;;;;;;6.68;4.40;;;;;;;;;;5001591;28;20237;-53
2023/06/12 18:30:50;;;;;;;4.82;4.43;;;;;;;;;;4999109;28;20703;-52
2023/06/12 18:33:20;;;;;;;5.32;4.72;;;;;;;;;;4998706;28;20229;-53
2023/06/12 18:35:48;;;;;;;5.82;3.88;;;;;;;;;;4997828;28;20241;-53
2023/06/12 18:38:14;;;;;;;4.35;3.97;;;;;;;;;;4997990;28;20320;-52
2023/06/12 18:40:41;;;;;;;5.05;4.57;;;;;;;;;;4999248;28;20229;-52
2023/06/12 18:43:12;;;;;;;4.15;3.75;;;;;;;;;;5001977;28;20233;-53
2023/06/12 18:45:39;;;;;;;4.55;4.20;;;;;;;;;;5002526;28;20320;-54
2023/06/12 18:48:06;;;;;;;6.35;4.05;;;;;;;;;;4996867;28;20620;-53